createdAt,value
2022-09-15T00:01:47.948Z,84.96
2022-09-15T00:04:16.638Z,85.02
2022-09-15T00:06:45.211Z,85.03
2022-09-15T00:09:14.270Z,85.14
2022-09-15T00:11:42.855Z,84.98
2022-09-15T00:14:11.968Z,85.11
2022-09-15T00:16:41.235Z,85.10
2022-09-15T00:19:10.211Z,84.91
2022-09-15T00:21:41.508Z,84.93
2022-09-15T00:24:10.488Z,84.93
2022-09-15T00:26:39.163Z,85.17
2022-09-15T00:29:08.333Z,85.11
2022-09-15T00:31:37.941Z,85.59
2022-09-15T00:34:07.455Z,85.39
2022-09-15T00:36:35.992Z,85.26
2022-09-15T00:39:05.103Z,85.16
2022-09-15T00:41:34.049Z,85.24
2022-09-15T00:44:06.048Z,85.22
2022-09-15T00:46:41.351Z,85.19
2022-09-15T00:49:16.231Z,85.38
2022-09-15T00:51:55.040Z,85.79
2022-09-15T00:54:30.511Z,85.93
2022-09-15T00:57:02.572Z,86.01
2022-09-15T00:59:34.437Z,85.68
2022-09-15T01:02:18.201Z,85.45
2022-09-15T01:04:47.666Z,85.82
2022-09-15T01:07:22.013Z,86.38
2022-09-15T01:10:03.319Z,85.78
2022-09-15T01:12:32.137Z,86.00
2022-09-15T01:15:02.238Z,86.29
2022-09-15T01:17:55.850Z,86.24
2022-09-15T01:20:34.607Z,85.84
2022-09-15T01:23:34.175Z,86.14
2022-09-15T01:26:14.453Z,86.47
2022-09-15T01:29:04.265Z,86.58
2022-09-15T01:32:05.852Z,86.95
2022-09-15T01:34:51.595Z,87.02
2022-09-15T01:37:29.302Z,87.24
2022-09-15T01:40:02.502Z,87.84
2022-09-15T01:42:33.636Z,87.85
2022-09-15T01:45:09.678Z,88.29
2022-09-15T01:47:39.992Z,88.43
2022-09-15T01:50:08.703Z,88.13
2022-09-15T01:52:41.762Z,87.89
2022-09-15T01:55:23.458Z,87.94
2022-09-15T01:57:52.245Z,87.79
2022-09-15T02:00:21.352Z,87.94
2022-09-15T02:03:01.483Z,87.81
2022-09-15T02:05:46.825Z,88.12
2022-09-15T02:08:37.275Z,88.14
2022-09-15T02:11:17.331Z,88.01
2022-09-15T02:14:12.049Z,87.77
2022-09-15T02:16:44.405Z,88.05
2022-09-15T02:19:22.439Z,88.05
2022-09-15T02:22:29.925Z,87.94
2022-09-15T02:25:04.024Z,87.77
2022-09-15T02:27:38.233Z,87.79
2022-09-15T02:30:12.235Z,87.99
2022-09-15T02:32:52.495Z,87.85
2022-09-15T02:35:22.699Z,87.90
2022-09-15T02:37:52.637Z,88.16
2022-09-15T02:40:22.373Z,88.07
2022-09-15T02:42:57.848Z,88.27
2022-09-15T02:45:27.309Z,88.26
2022-09-15T02:47:57.401Z,88.40
2022-09-15T02:50:27.331Z,88.43
2022-09-15T02:52:56.490Z,88.18
2022-09-15T02:55:27.884Z,88.27
2022-09-15T02:57:57.829Z,88.42
2022-09-15T03:00:28.732Z,88.62
2022-09-15T03:02:58.625Z,88.50
2022-09-15T03:05:30.061Z,88.49
2022-09-15T03:07:59.013Z,88.43
2022-09-15T03:10:27.423Z,88.59
2022-09-15T03:12:56.045Z,88.77
2022-09-15T03:15:26.494Z,88.68
2022-09-15T03:17:55.387Z,88.79
2022-09-15T03:20:28.753Z,89.03
2022-09-15T03:22:57.550Z,89.12
2022-09-15T03:25:27.251Z,89.08
2022-09-15T03:27:55.783Z,89.04
2022-09-15T03:30:24.484Z,89.36
2022-09-15T03:32:53.017Z,89.26
2022-09-15T03:35:22.231Z,89.39
2022-09-15T03:37:50.749Z,89.34
2022-09-15T03:40:19.326Z,89.51
2022-09-15T03:42:47.959Z,89.46
2022-09-15T03:45:16.577Z,89.48
2022-09-15T03:47:45.015Z,89.69
2022-09-15T03:50:13.736Z,89.48
2022-09-15T03:52:42.458Z,89.57
2022-09-15T03:55:11.384Z,89.50
2022-09-15T03:57:39.854Z,89.32
2022-09-15T04:00:09.221Z,89.51
2022-09-15T04:02:37.809Z,89.47
2022-09-15T04:05:07.033Z,89.42
2022-09-15T04:07:35.453Z,89.37
2022-09-15T04:10:04.998Z,89.42
2022-09-15T04:12:33.975Z,89.66
2022-09-15T04:15:04.385Z,89.46
2022-09-15T04:17:32.956Z,89.38
2022-09-15T04:20:01.879Z,89.41
2022-09-15T04:22:33.546Z,89.42
2022-09-15T04:25:02.373Z,89.14
2022-09-15T04:27:35.007Z,89.46
2022-09-15T04:30:04.150Z,89.52
2022-09-15T04:32:33.231Z,89.64
2022-09-15T04:35:04.657Z,89.34
2022-09-15T04:37:33.752Z,89.62
2022-09-15T04:40:02.560Z,89.76
2022-09-15T04:42:32.139Z,89.84
2022-09-15T04:45:00.729Z,90.03
2022-09-15T04:47:29.699Z,90.55
2022-09-15T04:49:58.974Z,90.23
2022-09-15T04:52:27.429Z,90.39
2022-09-15T04:54:56.006Z,90.45
2022-09-15T04:57:25.189Z,90.08
2022-09-15T04:59:53.635Z,90.19
2022-09-15T05:02:22.188Z,90.00
2022-09-15T05:04:52.280Z,89.52
2022-09-15T05:07:20.911Z,89.56
2022-09-15T05:09:49.631Z,89.68
2022-09-15T05:12:18.539Z,89.72
2022-09-15T05:14:47.256Z,90.05
2022-09-15T05:17:15.760Z,90.49
2022-09-15T05:19:44.607Z,90.75
2022-09-15T05:22:13.992Z,90.64
2022-09-15T05:24:42.485Z,90.56
2022-09-15T05:27:11.127Z,90.64
2022-09-15T05:29:39.911Z,90.47
2022-09-15T05:32:08.492Z,89.98
2022-09-15T05:34:37.438Z,90.24
2022-09-15T05:37:06.355Z,90.29
2022-09-15T05:39:35.277Z,90.06
2022-09-15T05:42:03.995Z,89.96
2022-09-15T05:44:33.075Z,89.93
2022-09-15T05:47:01.983Z,89.93
2022-09-15T05:49:31.336Z,89.85
2022-09-15T05:51:59.987Z,89.76
2022-09-15T05:54:28.935Z,89.89
2022-09-15T05:56:57.674Z,89.92
2022-09-15T05:59:26.353Z,88.50
2022-09-15T06:01:55.256Z,88.19
2022-09-15T06:04:23.886Z,87.75
2022-09-15T06:06:52.311Z,87.84
2022-09-15T06:09:21.248Z,88.48
2022-09-15T06:11:50.300Z,87.95
2022-09-15T06:14:18.943Z,88.33
2022-09-15T06:16:47.812Z,88.02
2022-09-15T06:19:16.600Z,86.68
2022-09-15T06:21:45.050Z,86.78
2022-09-15T06:24:14.867Z,85.19
2022-09-15T06:26:44.575Z,83.51
2022-09-15T06:29:13.738Z,82.25
2022-09-15T06:31:42.748Z,82.80
2022-09-15T06:34:12.396Z,82.76
2022-09-15T06:36:40.870Z,83.38
2022-09-15T06:39:10.236Z,83.90
2022-09-15T06:42:00.704Z,83.69
2022-09-15T06:44:30.732Z,82.61
2022-09-15T06:47:00.196Z,83.19
2022-09-15T06:49:29.460Z,81.61
2022-09-15T06:51:58.312Z,82.70
2022-09-15T06:54:27.032Z,81.36
2022-09-15T06:56:55.855Z,80.24
2022-09-15T06:59:24.945Z,81.14
2022-09-15T07:02:11.010Z,80.57
2022-09-15T07:04:39.936Z,79.75
2022-09-15T07:07:08.421Z,79.82
2022-09-15T07:09:40.937Z,78.26
2022-09-15T07:12:10.272Z,77.08
2022-09-15T07:14:39.192Z,78.50
2022-09-15T07:17:07.638Z,80.12
2022-09-15T07:19:37.071Z,81.21
2022-09-15T07:22:06.065Z,81.36
2022-09-15T07:24:34.627Z,82.30
2022-09-15T07:27:03.817Z,81.91
2022-09-15T07:29:37.132Z,81.37
2022-09-15T07:32:06.453Z,81.29
2022-09-15T07:34:35.433Z,81.24
2022-09-15T07:37:04.060Z,80.84
2022-09-15T07:39:33.518Z,80.24
2022-09-15T07:42:02.627Z,80.88
2022-09-15T07:44:31.124Z,80.68
2022-09-15T07:46:59.808Z,78.69
2022-09-15T07:49:28.819Z,79.96
2022-09-15T07:51:57.306Z,78.45
2022-09-15T07:54:25.909Z,78.00
2022-09-15T07:56:54.813Z,78.23
2022-09-15T07:59:23.385Z,77.80
2022-09-15T08:01:52.185Z,78.55
2022-09-15T08:04:20.821Z,79.40
2022-09-15T08:06:49.365Z,78.27
2022-09-15T08:09:18.086Z,77.07
2022-09-15T08:11:46.864Z,76.28
2022-09-15T08:14:16.163Z,76.03
2022-09-15T08:16:45.143Z,74.77
2022-09-15T08:19:14.316Z,74.82
2022-09-15T08:21:42.930Z,74.93
2022-09-15T08:24:11.447Z,74.44
2022-09-15T08:26:40.487Z,73.81
2022-09-15T08:29:09.524Z,73.55
2022-09-15T08:31:38.188Z,73.32
2022-09-15T08:34:07.618Z,72.63
2022-09-15T08:36:36.668Z,72.81
2022-09-15T08:39:05.405Z,72.21
2022-09-15T08:41:44.556Z,72.38
2022-09-15T08:44:58.724Z,71.64
2022-09-15T08:47:34.177Z,71.85
2022-09-15T08:50:31.469Z,71.21
2022-09-15T08:53:17.503Z,71.00
2022-09-15T08:55:51.409Z,70.92
2022-09-15T08:58:30.019Z,70.58
2022-09-15T09:01:19.058Z,70.45
2022-09-15T09:04:25.658Z,69.82
2022-09-15T09:07:13.185Z,70.07
2022-09-15T09:10:07.398Z,69.76
2022-09-15T09:12:54.677Z,69.61
2022-09-15T09:16:04.270Z,69.44
2022-09-15T09:18:47.420Z,69.48
2022-09-15T09:21:28.042Z,69.09
2022-09-15T09:24:20.126Z,68.20
2022-09-15T09:26:54.949Z,68.75
2022-09-15T09:29:41.043Z,68.21
2022-09-15T09:32:31.500Z,68.37
2022-09-15T09:35:14.832Z,68.46
2022-09-15T09:37:44.573Z,67.51
2022-09-15T09:40:16.076Z,67.89
2022-09-15T09:42:45.439Z,67.90
2022-09-15T09:45:17.093Z,67.75
2022-09-15T09:47:49.452Z,67.07
2022-09-15T09:50:44.463Z,67.22
2022-09-15T09:53:34.091Z,66.28
2022-09-15T09:56:25.761Z,65.47
2022-09-15T09:58:55.669Z,65.79
2022-09-15T10:01:26.640Z,65.71
2022-09-15T10:04:19.961Z,65.87
2022-09-15T10:06:49.125Z,66.09
2022-09-15T10:09:19.640Z,65.64
2022-09-15T10:11:49.762Z,64.91
2022-09-15T10:14:34.102Z,65.49
2022-09-15T10:17:21.408Z,65.38
2022-09-15T10:19:55.790Z,65.39
2022-09-15T10:22:34.793Z,65.32
2022-09-15T10:25:20.711Z,65.06
2022-09-15T10:28:15.154Z,65.14
2022-09-15T10:31:11.536Z,65.20
2022-09-15T10:33:51.164Z,65.07
2022-09-15T10:36:22.932Z,64.89
2022-09-15T10:39:18.801Z,64.51
2022-09-15T10:42:08.273Z,64.84
2022-09-15T10:45:08.310Z,64.67
2022-09-15T10:47:49.067Z,64.69
2022-09-15T10:50:40.635Z,64.62
2022-09-15T10:53:17.861Z,64.62
2022-09-15T10:56:05.247Z,64.39
2022-09-15T10:58:47.545Z,64.36
2022-09-15T11:01:28.394Z,64.31
2022-09-15T11:04:22.791Z,64.36
2022-09-15T11:07:10.175Z,64.18
2022-09-15T11:09:57.918Z,64.23
2022-09-15T11:12:36.676Z,64.08
2022-09-15T11:15:41.584Z,64.07
2022-09-15T11:18:59.132Z,64.07
2022-09-15T11:21:35.580Z,64.03
2022-09-15T11:24:25.263Z,63.89
2022-09-15T11:27:12.799Z,63.87
2022-09-15T11:29:54.221Z,63.79
2022-09-15T11:32:30.433Z,63.67
2022-09-15T11:35:18.467Z,63.68
2022-09-15T11:37:51.050Z,63.64
2022-09-15T11:40:38.244Z,63.72
2022-09-15T11:43:19.154Z,63.59
2022-09-15T11:45:55.908Z,63.54
2022-09-15T11:48:32.687Z,63.53
2022-09-15T11:51:03.740Z,63.46
2022-09-15T11:53:48.678Z,63.47
2022-09-15T11:56:39.290Z,63.35
2022-09-15T11:59:33.234Z,63.38
2022-09-15T12:02:41.531Z,63.29
2022-09-15T12:05:27.120Z,63.45
2022-09-15T12:08:14.803Z,63.39
2022-09-15T12:10:49.123Z,63.22
2022-09-15T12:13:21.593Z,62.90
2022-09-15T12:15:51.733Z,62.68
2022-09-15T12:18:41.757Z,62.48
2022-09-15T12:21:34.368Z,62.75
2022-09-15T12:24:17.470Z,62.81
2022-09-15T12:26:49.454Z,62.83
2022-09-15T12:29:27.469Z,62.88
2022-09-15T12:32:18.361Z,62.96
2022-09-15T12:35:10.046Z,63.05
2022-09-15T12:37:54.856Z,63.05
2022-09-15T12:40:30.351Z,63.30
2022-09-15T12:43:01.252Z,63.64
2022-09-15T12:45:34.861Z,63.54
2022-09-15T12:48:08.137Z,63.30
2022-09-15T12:50:39.707Z,63.35
2022-09-15T12:53:51.105Z,63.36
2022-09-15T12:56:26.560Z,63.55
2022-09-15T12:58:56.233Z,63.55
2022-09-15T13:01:24.923Z,63.61
2022-09-15T13:03:54.361Z,63.71
2022-09-15T13:06:34.833Z,63.82
2022-09-15T13:09:26.652Z,63.79
2022-09-15T13:11:57.033Z,63.77
2022-09-15T13:14:29.127Z,63.83
2022-09-15T13:17:11.803Z,63.69
2022-09-15T13:19:52.187Z,63.64
2022-09-15T13:22:31.395Z,63.69
2022-09-15T13:25:11.317Z,63.69
2022-09-15T13:27:55.473Z,63.72
2022-09-15T13:30:36.860Z,63.61
2022-09-15T13:33:21.931Z,63.70
2022-09-15T13:36:22.762Z,63.63
2022-09-15T13:39:13.019Z,63.56
2022-09-15T13:41:44.777Z,63.41
2022-09-15T13:44:23.469Z,63.53
2022-09-15T13:47:02.305Z,63.50
2022-09-15T13:49:43.368Z,63.54
2022-09-15T13:52:22.939Z,63.58
2022-09-15T13:55:12.645Z,63.45
2022-09-15T14:00:52.090Z,63.53
2022-09-15T14:03:27.844Z,63.57
2022-09-15T14:05:57.168Z,63.59
2022-09-15T14:08:30.946Z,63.50
2022-09-15T14:11:08.965Z,63.61
2022-09-15T14:13:44.183Z,63.55
2022-09-15T14:16:19.362Z,63.53
2022-09-15T14:18:47.978Z,63.63
2022-09-15T14:21:19.683Z,63.64
2022-09-15T14:23:51.044Z,63.55
2022-09-15T14:26:29.153Z,63.53
2022-09-15T14:29:00.662Z,63.50
2022-09-15T14:31:35.130Z,63.63
2022-09-15T14:34:08.043Z,63.62
2022-09-15T14:36:36.649Z,63.49
2022-09-15T14:39:26.668Z,63.41
2022-09-15T14:41:55.397Z,63.22
2022-09-15T14:47:29.070Z,63.36
2022-09-15T14:50:11.346Z,63.32
2022-09-15T14:52:43.763Z,63.14
2022-09-15T14:55:28.675Z,63.04
2022-09-15T14:58:07.392Z,63.07
2022-09-15T15:00:47.764Z,63.15
2022-09-15T15:03:33.211Z,63.08
2022-09-15T15:06:32.785Z,62.89
2022-09-15T15:09:10.319Z,62.92
2022-09-15T15:11:40.661Z,62.98
2022-09-15T15:14:11.852Z,63.02
2022-09-15T15:17:13.722Z,63.11
2022-09-15T15:19:42.764Z,63.10
2022-09-15T15:22:21.137Z,62.99
2022-09-15T15:24:52.827Z,62.95
2022-09-15T15:27:42.266Z,62.91
2022-09-15T15:30:29.860Z,62.87
2022-09-15T15:33:02.292Z,63.01
2022-09-15T15:35:32.762Z,62.81
2022-09-15T15:38:12.271Z,62.96
2022-09-15T15:40:42.108Z,62.96
2022-09-15T15:43:26.999Z,62.91
2022-09-15T15:46:01.234Z,62.99
2022-09-15T15:48:38.443Z,62.79
2022-09-15T15:51:07.999Z,62.90
2022-09-15T15:53:36.591Z,62.99
2022-09-15T15:56:08.586Z,62.88
2022-09-15T15:58:37.438Z,62.97
2022-09-15T16:01:06.015Z,62.97
2022-09-15T16:03:34.690Z,63.02
2022-09-15T16:06:03.745Z,63.00
2022-09-15T16:08:38.683Z,62.94
2022-09-15T16:11:10.726Z,63.09
2022-09-15T16:13:40.151Z,63.00
2022-09-15T16:16:18.365Z,63.11
2022-09-15T16:18:48.552Z,63.10
2022-09-15T16:21:27.817Z,63.24
2022-09-15T16:23:56.445Z,63.19
2022-09-15T16:26:25.238Z,63.21
2022-09-15T16:28:54.580Z,63.26
2022-09-15T16:31:23.628Z,63.19
2022-09-15T16:33:52.236Z,63.26
2022-09-15T16:36:20.942Z,63.27
2022-09-15T16:38:50.275Z,63.24
2022-09-15T16:41:23.526Z,63.37
2022-09-15T16:43:58.705Z,63.28
2022-09-15T16:46:27.364Z,63.32
2022-09-15T16:48:56.368Z,63.40
2022-09-15T16:51:29.924Z,63.26
2022-09-15T16:54:00.566Z,63.20
2022-09-15T16:56:29.349Z,63.13
2022-09-15T16:59:00.554Z,63.10
2022-09-15T17:01:29.406Z,63.32
2022-09-15T17:03:59.894Z,63.37
2022-09-15T17:06:28.767Z,63.30
2022-09-15T17:08:57.295Z,63.36
2022-09-15T17:11:27.029Z,63.41
2022-09-15T17:13:55.844Z,63.38
2022-09-15T17:16:24.447Z,63.41
2022-09-15T17:18:53.200Z,63.41
2022-09-15T17:21:22.776Z,63.39
2022-09-15T17:23:51.243Z,63.58
2022-09-15T17:26:22.449Z,63.57
2022-09-15T17:28:51.799Z,63.50
2022-09-15T17:31:25.463Z,63.48
2022-09-15T17:33:54.277Z,63.64
2022-09-15T17:36:23.529Z,63.71
2022-09-15T17:38:52.264Z,63.72
2022-09-15T17:41:23.174Z,63.75
2022-09-15T17:43:55.030Z,63.74
2022-09-15T17:46:23.779Z,63.74
2022-09-15T17:48:52.348Z,63.80
2022-09-15T17:51:21.719Z,63.80
2022-09-15T17:53:50.206Z,63.73
2022-09-15T17:56:18.789Z,63.74
2022-09-15T17:58:47.770Z,63.87
2022-09-15T18:01:16.449Z,64.04
2022-09-15T18:03:45.571Z,63.97
2022-09-15T18:06:15.558Z,64.04
2022-09-15T18:08:44.178Z,64.18
2022-09-15T18:11:15.386Z,64.11
2022-09-15T18:13:44.521Z,64.14
2022-09-15T18:16:14.653Z,64.20
2022-09-15T18:18:43.428Z,64.10
2022-09-15T18:21:29.309Z,64.21
2022-09-15T18:23:57.762Z,64.37
2022-09-15T18:26:27.030Z,64.49
2022-09-15T18:28:57.504Z,64.40
2022-09-15T18:31:26.865Z,64.51
2022-09-15T18:33:55.632Z,64.47
2022-09-15T18:36:25.518Z,64.56
2022-09-15T18:38:54.145Z,64.57
2022-09-15T18:41:23.055Z,64.61
2022-09-15T18:43:53.044Z,64.54
2022-09-15T18:46:21.781Z,64.49
2022-09-15T18:48:50.321Z,64.35
2022-09-15T18:51:29.209Z,64.50
2022-09-15T18:54:03.544Z,64.54
2022-09-15T18:56:32.723Z,64.25
2022-09-15T18:59:01.943Z,64.42
2022-09-15T19:01:30.565Z,64.54
2022-09-15T19:03:59.394Z,64.56
2022-09-15T19:06:28.576Z,64.51
2022-09-15T19:08:57.137Z,64.49
2022-09-15T19:11:29.142Z,64.56
2022-09-15T19:13:58.372Z,64.62
2022-09-15T19:16:46.703Z,64.58
2022-09-15T19:19:15.989Z,64.57
2022-09-15T19:21:44.529Z,64.57
2022-09-15T19:24:13.421Z,64.48
2022-09-15T19:26:42.998Z,64.57
2022-09-15T19:29:11.463Z,64.51
2022-09-15T19:31:42.159Z,64.49
2022-09-15T19:34:11.394Z,64.62
2022-09-15T19:36:40.013Z,64.57
2022-09-15T19:39:08.646Z,64.57
2022-09-15T19:41:37.669Z,64.56
2022-09-15T19:44:08.549Z,64.58
2022-09-15T19:46:39.727Z,64.56
2022-09-15T19:49:08.376Z,64.64
2022-09-15T19:51:39.657Z,64.58
2022-09-15T19:54:09.176Z,64.65
2022-09-15T19:56:38.972Z,64.77
2022-09-15T19:59:07.684Z,64.76
2022-09-15T20:01:36.881Z,64.75
2022-09-15T20:04:05.978Z,64.77
2022-09-15T20:06:36.665Z,64.84
2022-09-15T20:09:06.332Z,64.80
2022-09-15T20:11:35.888Z,64.98
2022-09-15T20:14:07.081Z,64.84
2022-09-15T20:16:36.076Z,64.99
2022-09-15T20:19:05.291Z,64.90
2022-09-15T20:21:49.978Z,64.81
2022-09-15T20:24:21.785Z,65.00
2022-09-15T20:26:50.902Z,65.05
2022-09-15T20:29:20.205Z,65.00
2022-09-15T20:31:50.277Z,65.01
2022-09-15T20:34:19.409Z,65.13
2022-09-15T20:36:47.898Z,65.05
2022-09-15T20:39:19.727Z,65.15
2022-09-15T20:41:49.200Z,65.03
2022-09-15T20:44:17.696Z,65.07
2022-09-15T20:46:46.538Z,65.07
2022-09-15T20:49:16.955Z,64.92
2022-09-15T20:51:45.663Z,65.05
2022-09-15T20:54:15.021Z,65.24
2022-09-15T20:56:45.475Z,65.13
2022-09-15T20:59:15.462Z,65.17
2022-09-15T21:01:44.134Z,65.15
2022-09-15T21:04:13.579Z,65.24
2022-09-15T21:06:42.459Z,65.21
2022-09-15T21:09:11.083Z,65.13
2022-09-15T21:11:40.461Z,65.12
2022-09-15T21:14:12.434Z,65.11
2022-09-15T21:16:41.862Z,65.12
2022-09-15T21:19:12.879Z,65.28
2022-09-15T21:21:41.412Z,65.32
2022-09-15T21:24:10.869Z,65.26
2022-09-15T21:27:00.529Z,65.43
2022-09-15T21:29:30.252Z,65.24
2022-09-15T21:31:59.122Z,65.48
2022-09-15T21:34:28.363Z,65.43
2022-09-15T21:36:58.577Z,65.39
2022-09-15T21:39:27.073Z,65.57
2022-09-15T21:41:55.699Z,65.57
2022-09-15T21:44:25.556Z,65.63
2022-09-15T21:46:55.016Z,65.76
2022-09-15T21:49:23.671Z,65.72
2022-09-15T21:51:52.842Z,65.82
2022-09-15T21:54:21.401Z,65.89
2022-09-15T21:56:50.964Z,65.85
2022-09-15T21:59:19.929Z,65.88
2022-09-15T22:01:49.379Z,66.02
2022-09-15T22:04:17.949Z,65.99
2022-09-15T22:06:48.142Z,66.08
2022-09-15T22:09:21.614Z,65.92
2022-09-15T22:11:50.530Z,65.96
2022-09-15T22:14:19.823Z,65.83
2022-09-15T22:16:48.370Z,65.93
2022-09-15T22:19:16.884Z,65.86
2022-09-15T22:21:45.878Z,66.03
2022-09-15T22:24:15.196Z,66.06
2022-09-15T22:26:44.543Z,66.21
2022-09-15T22:29:13.396Z,66.25
2022-09-15T22:31:42.484Z,66.16
2022-09-15T22:34:11.888Z,66.07
2022-09-15T22:36:40.749Z,66.17
2022-09-15T22:39:11.865Z,66.24
2022-09-15T22:41:40.710Z,66.33
2022-09-15T22:44:19.167Z,66.32
2022-09-15T22:46:50.221Z,66.40
2022-09-15T22:49:19.369Z,66.45
2022-09-15T22:51:47.854Z,66.58
2022-09-15T22:54:16.741Z,66.62
2022-09-15T22:56:47.068Z,66.60
2022-09-15T22:59:15.762Z,66.68
2022-09-15T23:01:45.332Z,66.87
2022-09-15T23:04:14.246Z,66.80
2022-09-15T23:06:43.114Z,66.83
2022-09-15T23:09:12.705Z,66.87
2022-09-15T23:11:41.810Z,66.79
2022-09-15T23:14:14.785Z,66.77
2022-09-15T23:16:45.274Z,66.89
2022-09-15T23:19:15.949Z,66.98
2022-09-15T23:21:46.778Z,66.99
2022-09-15T23:24:17.624Z,66.90
2022-09-15T23:26:46.668Z,67.01
2022-09-15T23:29:15.785Z,67.03
2022-09-15T23:31:44.488Z,67.05
2022-09-15T23:34:12.964Z,67.02
2022-09-15T23:36:41.724Z,67.02
2022-09-15T23:39:10.333Z,67.05
2022-09-15T23:41:39.538Z,67.10
2022-09-15T23:44:08.898Z,67.15
2022-09-15T23:46:37.865Z,67.13
2022-09-15T23:49:06.727Z,67.19
2022-09-15T23:51:36.714Z,67.29
2022-09-15T23:54:05.233Z,67.19
2022-09-15T23:56:34.200Z,67.24
2022-09-15T23:59:03.047Z,67.22
